Données. Loja

Actualisé: dimanche, 2 août 2015 13:42 (heure officielle)
Ind. climatologique: 5582A -  Altitude (m): 594
Latitude37° 9' 40'' N - Longitude4° 9' 10'' O -  PositionVoir localisation
MunicipioLoja (Granada) - Ver predicción
Registros - de
Fecha y hora oficial

 

Temp. (°C)

 

Vit. vent (km/h)

 

Dir. vent

 

Rafale (km/h)

 

Dir. rafale

 

Prec. (mm)

 

Pression (hPa)

 

Tend. (hPa)

 

Humidité (%)

 

02/08/2015 13:00 30.4 6 3-Nord-EstNord-Est 16 2-NordNord 0.0 947.5 0.4 43
02/08/2015 12:00 28.4 6 3-Nord-EstNord-Est 16 3-Nord-EstNord-Est 0.0 947.4 0.6 45
02/08/2015 11:00 28.4 4 5-Sud-EstSud-Est 16 5-Sud-EstSud-Est 0.0 947.2 1.0 47
02/08/2015 10:00 25.7 6 4-EstEst 18 4-EstEst 0.0 947.1 1.1 50
02/08/2015 09:00 23.8 7 5-Sud-EstSud-Est 25 5-Sud-EstSud-Est 0.0 946.8 1.0 57
02/08/2015 08:00 21.1 8 4-EstEst 20 4-EstEst 0.0 946.2 0.0 68
02/08/2015 07:00 20.5 7 4-EstEst 25 2-NordNord 0.0 946.0 -0.2 70
02/08/2015 06:00 21.8 6 4-EstEst 18 4-EstEst 0.0 945.8 -0.4 67
02/08/2015 05:00 21.1 0 1-CalmeCalme 12 4-EstEst 0.0 946.2 0.0 58
02/08/2015 04:00 21.4 4 6-SudSud 9 5-Sud-EstSud-Est 0.0 946.2 0.2 49
02/08/2015 03:00 21.6 4 6-SudSud 11 5-Sud-EstSud-Est 0.0 946.2 0.6 42
02/08/2015 02:00 22.9 0 1-CalmeCalme 15 5-Sud-EstSud-Est 0.0 946.2 1.1 38
02/08/2015 01:00 24.2 5 5-Sud-EstSud-Est 12 5-Sud-EstSud-Est 0.0 946.0 2.1 32
02/08/2015 00:00 25.6 4 8-OuestOuest 13 8-OuestOuest 0.0 945.6 2.7 28
01/08/2015 23:00 26.8 8 8-OuestOuest 19 8-OuestOuest 0.0 945.1 2.8 27
01/08/2015 22:00 27.4 2 8-OuestOuest 7 9-Nord-OuestNord-Ouest 0.0 943.9 1.7 26
01/08/2015 21:00 30.2 4 3-Nord-EstNord-Est 15 9-Nord-OuestNord-Ouest 0.0 942.9 0.6 24
01/08/2015 20:00 33.1 6 9-Nord-OuestNord-Ouest 19 9-Nord-OuestNord-Ouest 0.0 942.3 -0.1 24
01/08/2015 19:00 34.6 8 8-OuestOuest 22 9-Nord-OuestNord-Ouest 0.0 942.2 -0.5 23
01/08/2015 18:00 35.1 6 8-OuestOuest 24 8-OuestOuest 0.0 942.3 -0.9 24
01/08/2015 17:00 34.9 6 8-OuestOuest 27 8-OuestOuest 0.0 942.4 -1.7 24
01/08/2015 16:00 33.6 8 2-NordNord 17 2-NordNord 0.0 942.7 -1.8 26
01/08/2015 15:00 32.2 5 9-Nord-OuestNord-Ouest 17 2-NordNord 0.0 943.2 -1.6 27
01/08/2015 14:00 30.4 4 2-NordNord 19 3-Nord-EstNord-Est 0.0 944.1 -0.4 32
First Page First Page First Page Last Page
Lineas por página
Página   de  
Partager:  
En esta página podrá acceder, en forma gráfica y en tabla, a las observaciones horarias de las últimas 24 horas, así como a los valores extremos y acumulados desde las 00 horas del día hasta la hora de actualización indicada, obtenidos en la red de estaciones de AEMET. También podrá acceder a los resúmenes diarios de estas estaciones en los últimos 7 días.

En el mapa aparecen estaciones con valor númerico y otras representadas por un punto. En las primeras, al pasar el ratón, aparece un desplegable con la información completa de la estación. Las estaciones representadas por un punto son estaciones de la red climatológica, con transmisión de datos superior a la hora, por lo que al seleccionarlas pueden no aparecer los últimos datos.

Los datos presentados han sido únicamente sometidos a controles automáticos de calidad en tiempo real, por lo que no puede garantizarse la ausencia de errores.
Toute utilisation et reproduction de l'information est autorisé sous réserve de mentionner AEMETen tant qu'auteur de celle-ci